^^
Meteo Knjazevac Station Historical Data
Daily Summary for April 12, 2021 Units:  Metric    English   Both
Daily Weekly Monthly Yearly Custom
  High: Low: Average:
Temperature: 20.7 °C 16.5 °C 18.5 °C
Dew Point: 15.7 °C 14.2 °C 14.9 °C
Humidity: 86% 73% 80%
Wind Speed: 3.2km/h 0km/h 0.8km/h
Wind Gust: 9.7km/h - -
Wind- - SW
Pressure: 1017.2 hPa 1015.8 hPa -
Precipitation: 0 mm    
Historical Graphs
 
 
Tabular Data for April 12, 2021
Time Temperature Dew Point Pressure Wind Wind Speed Wind Gust Humidity Rainfall Rate (Hourly) solar Conditions
00:00 20.7 °C 15.7 °C 1015.8 hPa Calm   3.2 km/h 73% 0 mm 0 W/m2
00:10 20.5 °C 15.5 °C 1015.8 hPa Calm   3.2 km/h 73% 0 mm 0 W/m2
00:20 20.4 °C 15.6 °C 1016.1 hPa Calm   3.2 km/h 74% 0 mm 0 W/m2
00:30 20.1 °C 15.6 °C 1015.8 hPa SW 1.6 km/h 3.2 km/h 75% 0 mm 0 W/m2
00:40 19.7 °C 15.2 °C 1016.1 hPa Calm   4.8 km/h 75% 0 mm 0 W/m2
00:50 19.6 °C 15.1 °C 1016.1 hPa NNW 1.6 km/h 4.8 km/h 75% 0 mm 0 W/m2
01:00 19.6 °C 15.4 °C 1016.1 hPa Calm   3.2 km/h 77% 0 mm 0 W/m2
01:10 19.4 °C 15.3 °C 1016.1 hPa Calm   3.2 km/h 77% 0 mm 0 W/m2
01:20 19.2 °C 15.3 °C 1016.1 hPa NW 1.6 km/h 4.8 km/h 78% 0 mm 0 W/m2
01:30 19.1 °C 15.2 °C 1016.1 hPa Calm   3.2 km/h 78% 0 mm 0 W/m2
01:40 19.1 °C 15.2 °C 1016.1 hPa Calm   3.2 km/h 78% 0 mm 0 W/m2
01:50 18.7 °C 15 °C 1016.1 hPa Calm   3.2 km/h 79% 0 mm 0 W/m2
02:00 18.4 °C 14.9 °C 1016.1 hPa WSW 3.2 km/h 3.2 km/h 80% 0 mm 0 W/m2
02:10 18.1 °C 14.6 °C 1016.5 hPa Calm   3.2 km/h 80% 0 mm 0 W/m2
02:20 18.1 °C 14.8 °C 1016.5 hPa NNE 3.2 km/h 9.7 km/h 81% 0 mm 0 W/m2
02:30 18 °C 14.7 °C 1016.5 hPa Calm   3.2 km/h 81% 0 mm 0 W/m2
02:40 17.9 °C 14.6 °C 1016.5 hPa North 1.6 km/h 3.2 km/h 81% 0 mm 0 W/m2
02:50 17.8 °C 14.5 °C 1016.5 hPa Calm   3.2 km/h 81% 0 mm 0 W/m2
03:00 17.7 °C 14.8 °C 1016.5 hPa Calm   1.6 km/h 83% 0 mm 0 W/m2
03:10 17.6 °C 14.7 °C 1016.8 hPa Calm   1.6 km/h 83% 0 mm 0 W/m2
03:20 17.4 °C 14.5 °C 1016.8 hPa West 1.6 km/h 3.2 km/h 83% 0 mm 0 W/m2
03:30 17.2 °C 14.4 °C 1016.8 hPa Calm   3.2 km/h 84% 0 mm 0 W/m2
03:40 17 °C 14.4 °C 1017.2 hPa Calm   3.2 km/h 85% 0 mm 0 W/m2
03:50 16.9 °C 14.4 °C 1017.2 hPa West 1.6 km/h 4.8 km/h 85% 0 mm 0 W/m2
04:00 16.7 °C 14.2 °C 1017.2 hPa WNW 1.6 km/h 4.8 km/h 85% 0 mm 0 W/m2
04:10 16.5 °C 14.2 °C 1017.2 hPa West 1.6 km/h 3.2 km/h 86% 0 mm 0 W/m2
Knjazevac, Serbia
Compliments of Weather Underground - 2 mb